Time;durP1;ratioP1;P1;durP2;ratioP2;P2;SDS_P1;SDS_P2;PMS_P1;PMS_P2;Temp;Humidity;BMP_temperature;BMP_pressure;BME280_temperature;BME280_humidity;BME280_pressure;Samples;Min_cycle;Max_cycle;Signal;HPM_P1;HPM_P2
2022/09/05 00:00:59;;;;;;;5.67;4.60;;;16.70;1.00;;;;;;5052352;28;20964;-71
2022/09/05 00:03:31;;;;;;;7.27;4.57;;;16.70;1.00;;;;;;5052369;28;20469;-72
2022/09/05 00:06:06;;;;;;;5.80;5.30;;;16.70;1.00;;;;;;5052835;28;20491;-73
2022/09/05 00:08:43;;;;;;;4.77;4.30;;;16.60;1.00;;;;;;5054497;28;20797;-70
2022/09/05 00:11:14;;;;;;;5.67;5.07;;;16.60;1.00;;;;;;5056499;28;20970;-72
2022/09/05 00:13:44;;;;;;;5.50;5.10;;;16.60;1.00;;;;;;5056782;28;20521;-72
2022/09/05 00:16:30;;;;;;;6.53;5.47;;;16.60;1.00;;;;;;5056725;28;20861;-72
2022/09/05 00:19:09;;;;;;;5.00;4.60;;;16.50;1.00;;;;;;5057458;28;20457;-72
2022/09/05 00:21:51;;;;;;;5.70;5.17;;;16.50;1.00;;;;;;5057296;28;20464;-73
2022/09/05 00:24:33;;;;;;;6.27;4.93;;;16.50;1.00;;;;;;5056546;28;20469;-72
2022/09/05 00:27:13;;;;;;;6.73;4.60;;;16.40;1.00;;;;;;5056453;28;20785;-72
2022/09/05 00:29:53;;;;;;;6.27;5.27;;;16.40;1.00;;;;;;5056982;28;20473;-72
2022/09/05 00:32:27;;;;;;;7.50;5.33;;;16.30;1.00;;;;;;5056713;28;20441;-73
2022/09/05 00:35:04;;;;;;;5.77;5.27;;;16.30;1.00;;;;;;5056847;28;20528;-73
2022/09/05 00:37:37;;;;;;;5.80;5.30;;;16.30;1.00;;;;;;5056142;28;20434;-71
2022/09/05 00:40:25;;;;;;;5.40;4.87;;;16.30;1.00;;;;;;5056285;28;20465;-71
2022/09/05 00:42:55;;;;;;;4.80;4.40;;;16.30;1.00;;;;;;5056182;28;20504;-72
2022/09/05 00:45:30;;;;;;;5.23;4.83;;;16.20;1.00;;;;;;5056438;28;20434;-73
2022/09/05 00:48:05;;;;;;;6.30;4.87;;;16.20;1.00;;;;;;5056112;28;20436;-71
2022/09/05 00:50:42;;;;;;;5.17;4.63;;;16.20;1.00;;;;;;5056105;28;20875;-72
2022/09/05 00:53:18;;;;;;;7.90;5.07;;;16.10;1.00;;;;;;5056108;28;20425;-72
2022/09/05 00:55:55;;;;;;;6.13;5.53;;;16.10;1.00;;;;;;5055602;28;20434;-73
2022/09/05 00:58:37;;;;;;;6.27;4.40;;;16.10;1.00;;;;;;5056042;28;20429;-73
2022/09/05 01:01:07;;;;;;;5.87;5.03;;;16.10;1.00;;;;;;5056905;28;20861;-73
2022/09/05 01:03:51;;;;;;;4.97;4.57;;;16.10;1.00;;;;;;5056110;28;20485;-73
2022/09/05 01:06:29;;;;;;;5.80;5.20;;;16.10;1.00;;;;;;5055560;28;20421;-73
2022/09/05 01:09:13;;;;;;;6.20;5.60;;;16.00;1.00;;;;;;5055747;28;20481;-72
2022/09/05 01:11:52;;;;;;;6.20;5.60;;;16.00;1.00;;;;;;5056484;28;20469;-72
2022/09/05 01:14:46;;;;;;;6.13;5.20;;;16.10;1.00;;;;;;5055644;28;20422;-72
2022/09/05 01:17:27;;;;;;;7.23;5.90;;;16.00;1.00;;;;;;5049428;28;20821;-72
2022/09/05 01:20:24;;;;;;;7.10;5.50;;;16.00;1.00;;;;;;5054231;28;20515;-72
2022/09/05 01:23:20;;;;;;;4.87;4.47;;;15.90;1.00;;;;;;5033925;28;20481;-72
2022/09/05 01:26:20;;;;;;;7.13;5.67;;;15.90;1.00;;;;;;5055239;28;20445;-72
2022/09/05 01:28:55;;;;;;;6.50;5.90;;;15.80;1.00;;;;;;5039901;28;20477;-72
2022/09/05 01:31:28;;;;;;;6.17;5.60;;;15.80;1.00;;;;;;5055293;28;20429;-72
2022/09/05 01:34:03;;;;;;;6.97;5.97;;;15.80;1.00;;;;;;5056058;28;20433;-72
2022/09/05 01:36:45;;;;;;;6.30;5.90;;;15.80;1.00;;;;;;5055122;28;20433;-72
2022/09/05 01:39:19;;;;;;;8.57;5.90;;;15.70;1.00;;;;;;5055066;28;20465;-71
2022/09/05 01:41:53;;;;;;;7.57;5.37;;;15.70;1.00;;;;;;5055448;28;20416;-72
2022/09/05 01:44:43;;;;;;;6.80;5.53;;;15.70;1.00;;;;;;5054891;28;20451;-72
2022/09/05 01:47:26;;;;;;;6.43;5.80;;;15.70;1.00;;;;;;5055115;28;20430;-72
2022/09/05 01:50:05;;;;;;;5.90;5.30;;;15.70;1.00;;;;;;5054922;28;20469;-72
2022/09/05 01:52:47;;;;;;;5.70;5.27;;;15.70;1.00;;;;;;5055479;28;20452;-73
2022/09/05 01:55:26;;;;;;;7.80;6.47;;;15.70;1.00;;;;;;5054953;28;20433;-72
2022/09/05 01:58:01;;;;;;;7.80;6.00;;;15.60;1.00;;;;;;5054688;28;20426;-72
2022/09/05 02:00:38;;;;;;;6.40;5.80;;;15.60;1.00;;;;;;5054692;28;20465;-72
2022/09/05 02:03:18;;;;;;;6.40;5.80;;;15.60;8.00;;;;;;5054653;28;20469;-71
2022/09/05 02:06:02;;;;;;;8.10;6.37;;;15.60;99.90;;;;;;5054609;28;20426;-72
2022/09/05 02:09:04;;;;;;;6.00;5.50;;;15.40;61.80;;;;;;5054433;28;20430;-71
2022/09/05 02:11:51;;;;;;;6.60;5.90;;;15.50;28.60;;;;;;5054172;28;20975;-72
2022/09/05 02:14:25;;;;;;;8.63;6.60;;;15.50;41.40;;;;;;5054588;28;20499;-72
2022/09/05 02:16:57;;;;;;;6.73;6.03;;;15.50;90.00;;;;;;5054554;28;20431;-72
2022/09/05 02:19:30;;;;;;;7.90;6.17;;;15.50;85.30;;;;;;5054572;28;20833;-72
2022/09/05 02:22:02;;;;;;;7.07;6.40;;;15.50;55.90;;;;;;5054497;28;20449;-72
2022/09/05 02:24:36;;;;;;;7.03;6.33;;;15.50;94.00;;;;;;5054358;28;20473;-71
2022/09/05 02:27:15;;;;;;;7.27;6.57;;;15.50;99.90;;;;;;5055005;28;20759;-71
2022/09/05 02:29:46;;;;;;;6.53;5.93;;;15.40;99.90;;;;;;5054085;28;20477;-71
2022/09/05 02:32:19;;;;;;;6.60;5.97;;;15.40;99.90;;;;;;5053499;28;20441;-71
2022/09/05 02:34:57;;;;;;;12.07;6.53;;;15.30;99.90;;;;;;5053745;28;20422;-71
2022/09/05 02:37:28;;;;;;;7.23;6.43;;;15.30;99.90;;;;;;5054153;28;20495;-72
2022/09/05 02:40:00;;;;;;;6.57;5.90;;;15.30;99.90;;;;;;5053883;28;20469;-72
2022/09/05 02:42:33;;;;;;;9.83;6.60;;;15.30;99.90;;;;;;5053954;28;20794;-72
2022/09/05 02:45:08;;;;;;;13.43;7.07;;;15.30;99.90;;;;;;5053532;28;20466;-71
2022/09/05 02:47:45;;;;;;;8.10;7.30;;;15.30;99.90;;;;;;5053764;28;20430;-72
2022/09/05 02:50:31;;;;;;;9.00;6.37;;;15.20;99.90;;;;;;5053724;28;20476;-71
2022/09/05 02:52:59;;;;;;;6.73;6.00;;;15.20;99.90;;;;;;5053852;28;20412;-71
2022/09/05 02:55:35;;;;;;;8.30;6.87;;;15.20;99.90;;;;;;5053596;28;20456;-71
2022/09/05 02:58:24;;;;;;;6.67;5.97;;;15.10;99.90;;;;;;5053590;28;20430;-71
2022/09/05 03:00:58;;;;;;;6.80;6.20;;;15.10;99.90;;;;;;5053729;28;20437;-72
2022/09/05 03:03:36;;;;;;;9.53;5.83;;;15.10;99.90;;;;;;5053281;28;20465;-72
2022/09/05 03:06:12;;;;;;;6.90;6.17;;;15.10;99.90;;;;;;5053401;28;20436;-71
2022/09/05 03:08:58;;;;;;;6.90;6.30;;;14.50;99.90;;;;;;5053190;28;20429;-72
2022/09/05 03:12:14;;;;;;;8.73;5.73;;;15.10;99.90;;;;;;5053380;28;20434;-71
2022/09/05 03:15:19;;;;;;;8.13;6.37;;;15.00;99.90;;;;;;5027910;28;20507;-71
2022/09/05 03:18:12;;;;;;;7.03;6.43;;;15.10;99.90;;;;;;5053449;28;20430;-71
2022/09/05 03:21:19;;;;;;;7.93;6.20;;;15.10;99.90;;;;;;5055890;28;20469;-72
2022/09/05 03:24:16;;;;;;;6.40;5.70;;;15.00;99.90;;;;;;5061676;28;20476;-72
2022/09/05 03:27:11;;;;;;;7.13;6.33;;;15.00;99.90;;;;;;5006901;28;20441;-72
2022/09/05 03:30:01;;;;;;;7.80;6.53;;;15.00;99.90;;;;;;5053202;28;20464;-72
2022/09/05 03:33:03;;;;;;;9.83;6.57;;;15.00;99.90;;;;;;5052810;28;20434;-71
2022/09/05 03:36:08;;;;;;;9.67;5.70;;;15.00;99.90;;;;;;5052601;28;20445;-71
2022/09/05 03:39:11;;;;;;;6.40;5.80;;;15.00;99.90;;;;;;5052977;28;20419;-72
2022/09/05 03:42:14;;;;;;;6.27;5.53;;;15.00;99.90;;;;;;5055126;28;20428;-72
2022/09/05 03:44:55;;;;;;;7.90;5.90;;;14.90;99.90;;;;;;5039543;28;20574;-71
2022/09/05 03:47:41;;;;;;;8.67;6.70;;;14.90;99.90;;;;;;5052877;28;20429;-73
2022/09/05 03:50:21;;;;;;;7.20;5.40;;;14.90;99.90;;;;;;5052782;28;20469;-72
2022/09/05 03:53:05;;;;;;;6.90;6.40;;;14.90;99.90;;;;;;5052841;28;20426;-71
2022/09/05 03:55:57;;;;;;;7.27;5.60;;;14.80;99.90;;;;;;5052912;28;20401;-73
2022/09/05 03:58:41;;;;;;;7.23;5.57;;;14.80;1.00;;;;;;5047613;28;20446;-71
2022/09/05 04:01:14;;;;;;;7.03;5.23;;;14.80;1.00;;;;;;5052716;28;20429;-71
2022/09/05 04:03:46;;;;;;;10.17;5.20;;;14.80;1.00;;;;;;5052451;28;20565;-72
2022/09/05 04:06:19;;;;;;;8.20;5.50;;;14.80;1.00;;;;;;5052437;28;20438;-72
2022/09/05 04:08:54;;;;;;;6.97;5.10;;;14.80;1.00;;;;;;5052471;28;20484;-71
2022/09/05 04:11:32;;;;;;;7.03;5.97;;;14.80;1.00;;;;;;5052908;28;20444;-73
2022/09/05 04:14:02;;;;;;;7.03;5.77;;;14.70;1.00;;;;;;5052942;28;20513;-72
2022/09/05 04:16:32;;;;;;;6.97;6.23;;;14.80;1.00;;;;;;5053319;28;20429;-71
2022/09/05 04:19:09;;;;;;;7.40;5.57;;;14.70;1.00;;;;;;5052917;28;20476;-71
2022/09/05 04:21:43;;;;;;;6.50;5.87;;;14.70;1.00;;;;;;5052638;28;20440;-72
2022/09/05 04:24:13;;;;;;;6.87;5.40;;;14.70;1.00;;;;;;5052451;28;20460;-71
2022/09/05 04:27:23;;;;;;;6.10;5.60;;;14.70;1.00;;;;;;5052725;28;20446;-72
2022/09/05 04:29:59;;;;;;;7.67;5.70;;;14.70;1.00;;;;;;4991021;28;20468;-71
2022/09/05 04:32:38;;;;;;;7.00;5.63;;;14.60;1.00;;;;;;4991307;28;20455;-71
2022/09/05 04:35:22;;;;;;;7.00;5.87;;;14.60;1.00;;;;;;5031300;28;20445;-72
2022/09/05 04:37:58;;;;;;;6.23;5.30;;;14.50;63.00;;;;;;5052545;28;20801;-72
2022/09/05 04:40:34;;;;;;;5.10;4.60;;;14.50;79.00;;;;;;5052492;28;20460;-71
2022/09/05 04:43:05;;;;;;;7.40;6.57;;;14.50;99.90;;;;;;5052271;28;20425;-71
2022/09/05 04:45:37;;;;;;;6.17;5.40;;;14.50;99.90;;;;;;5052299;28;20469;-71
2022/09/05 04:48:08;;;;;;;7.10;5.30;;;14.50;99.90;;;;;;5052366;28;20445;-71
2022/09/05 04:50:50;;;;;;;6.17;5.30;;;14.50;99.90;;;;;;5052532;28;20837;-72
2022/09/05 04:53:26;;;;;;;10.73;5.10;;;14.50;99.90;;;;;;5052229;28;20911;-71
2022/09/05 04:55:56;;;;;;;7.63;5.40;;;14.50;99.90;;;;;;5055910;28;20790;-71
2022/09/05 04:58:28;;;;;;;5.90;5.27;;;14.50;99.90;;;;;;5056025;28;20457;-71
2022/09/05 05:01:00;;;;;;;5.20;4.77;;;14.50;99.90;;;;;;5055951;28;20444;-72
2022/09/05 05:03:29;;;;;;;5.75;5.10;;;14.50;99.90;;;;;;5055151;28;20903;-72
2022/09/05 05:06:00;;;;;;;4.83;4.40;;;14.50;99.90;;;;;;5055983;28;20223;-72
2022/09/05 05:08:33;;;;;;;7.70;5.73;;;14.40;99.90;;;;;;5056060;28;20434;-72
2022/09/05 05:11:06;;;;;;;8.90;5.00;;;14.50;99.90;;;;;;5056664;28;20437;-73
2022/09/05 05:13:43;;;;;;;6.40;5.57;;;14.50;99.90;;;;;;5055924;28;20430;-72
2022/09/05 05:16:15;;;;;;;5.07;4.67;;;14.60;99.90;;;;;;5055414;28;20905;-71
2022/09/05 05:18:46;;;;;;;6.07;5.47;;;14.30;99.90;;;;;;5055577;28;20444;-72
2022/09/05 05:21:17;;;;;;;9.20;5.10;;;14.60;99.90;;;;;;5055617;28;20798;-71
2022/09/05 05:23:48;;;;;;;6.13;5.00;;;14.70;99.90;;;;;;5055351;28;20472;-72
2022/09/05 05:26:22;;;;;;;5.40;4.90;;;14.70;99.90;;;;;;5056025;28;20769;-72
2022/09/05 05:28:57;;;;;;;5.43;4.20;;;14.70;99.90;;;;;;5054944;28;20466;-72
2022/09/05 05:31:29;;;;;;;13.37;4.87;;;14.70;99.90;;;;;;5055184;28;20487;-72
2022/09/05 05:33:59;;;;;;;9.20;6.70;;;14.70;91.90;;;;;;5055140;28;20429;-71
2022/09/05 05:36:29;;;;;;;7.07;5.20;;;14.70;99.90;;;;;;5055247;28;20433;-71
2022/09/05 05:39:01;;;;;;;5.47;4.83;;;14.70;99.90;;;;;;5054954;28;20474;-72
2022/09/05 05:41:36;;;;;;;4.63;4.23;;;14.70;99.90;;;;;;5055670;28;20788;-72
2022/09/05 05:44:12;;;;;;;6.80;5.73;;;14.70;99.90;;;;;;5055541;28;20471;-71
2022/09/05 05:46:42;;;;;;;9.40;5.00;;;14.70;99.90;;;;;;5054991;28;20434;-72
2022/09/05 05:49:26;;;;;;;5.50;5.00;;;14.80;99.90;;;;;;5055543;28;20440;-71
2022/09/05 05:52:11;;;;;;;13.80;7.67;;;14.80;99.90;;;;;;5055093;28;20466;-71
2022/09/05 05:54:46;;;;;;;5.63;5.00;;;14.80;99.90;;;;;;5055616;28;20445;-71
2022/09/05 05:57:40;;;;;;;5.43;4.20;;;14.80;99.90;;;;;;5054760;28;20949;-73
2022/09/05 06:00:17;;;;;;;6.73;5.20;;;14.80;99.90;;;;;;5054290;28;20846;-73
2022/09/05 06:03:24;;;;;;;7.80;5.47;;;14.90;99.90;;;;;;5054665;28;20438;-72
2022/09/05 06:06:08;;;;;;;8.60;4.70;;;14.90;99.90;;;;;;5053874;28;20481;-72
2022/09/05 06:09:09;;;;;;;4.90;4.50;;;15.10;1.00;;;;;;5054475;28;20426;-72
2022/09/05 06:12:10;;;;;;;5.97;4.80;;;15.00;99.90;;;;;;5029043;28;20560;-72
2022/09/05 06:15:12;;;;;;;7.00;4.77;;;15.40;99.90;;;;;;5054475;28;20885;-72
2022/09/05 06:18:23;;;;;;;5.80;4.67;;;15.10;99.90;;;;;;5054975;28;20464;-72
2022/09/05 06:21:13;;;;;;;4.40;3.97;;;15.10;99.90;;;;;;5054552;28;20430;-72
2022/09/05 06:24:28;;;;;;;6.47;4.90;;;15.30;99.90;;;;;;5054367;28;20419;-72
2022/09/05 06:27:48;;;;;;;8.07;5.33;;;15.30;94.00;;;;;;5053848;28;20454;-73
2022/09/05 06:30:19;;;;;;;4.87;4.43;;;15.40;1.90;;;;;;5018194;28;20476;-72
2022/09/05 06:33:08;;;;;;;24.43;5.83;;;15.40;1.00;;;;;;5054042;28;20746;-72
2022/09/05 06:35:52;;;;;;;8.90;5.10;;;15.50;1.00;;;;;;5053891;28;20437;-73
2022/09/05 06:38:52;;;;;;;6.23;5.00;;;15.60;1.00;;;;;;5054069;28;20806;-73
2022/09/05 06:41:28;;;;;;;14.03;4.70;;;15.70;1.00;;;;;;5053879;28;20449;-72
2022/09/05 06:44:30;;;;;;;7.83;4.57;;;15.80;1.00;;;;;;5053875;28;20798;-72
2022/09/05 06:47:03;;;;;;;14.00;7.07;;;15.80;1.00;;;;;;5051335;28;20553;-72
2022/09/05 06:49:43;;;;;;;15.07;6.03;;;15.90;1.00;;;;;;5053714;28;20478;-72
2022/09/05 06:52:51;;;;;;;25.80;8.53;;;16.00;1.00;;;;;;5053851;28;20430;-73
2022/09/05 06:55:43;;;;;;;8.00;5.27;;;16.10;1.00;;;;;;5052038;28;20441;-73
2022/09/05 06:58:46;;;;;;;6.83;4.50;;;16.20;1.00;;;;;;5053635;28;20430;-72
2022/09/05 07:01:15;;;;;;;23.30;6.17;;;16.20;1.00;;;;;;5053606;28;20430;-72
2022/09/05 07:03:59;;;;;;;5.80;4.60;;;16.30;1.00;;;;;;5053808;28;20470;-72
2022/09/05 07:06:34;;;;;;;6.20;4.27;;;16.50;1.00;;;;;;5053753;28;20468;-72
2022/09/05 07:09:16;;;;;;;7.50;4.47;;;16.40;99.90;;;;;;5053330;28;20480;-72
2022/09/05 07:11:51;;;;;;;5.70;4.30;;;16.50;1.00;;;;;;5053135;28;20450;-71
2022/09/05 07:14:21;;;;;;;5.07;4.60;;;16.50;1.00;;;;;;5053621;28;20448;-72
2022/09/05 07:16:53;;;;;;;8.13;6.07;;;16.60;1.00;;;;;;5054540;28;20430;-72
2022/09/05 07:19:26;;;;;;;6.83;4.77;;;16.50;99.90;;;;;;5053191;28;20481;-72
2022/09/05 07:22:12;;;;;;;92.10;17.70;;;16.50;99.90;;;;;;5053497;28;20517;-73
2022/09/05 07:24:42;;;;;;;36.63;9.63;;;16.70;99.90;;;;;;5053174;28;20556;-72
2022/09/05 07:27:11;;;;;;;29.90;8.30;;;16.70;99.90;;;;;;5053484;28;20931;-72
2022/09/05 07:29:43;;;;;;;5.37;4.87;;;16.80;99.90;;;;;;5052815;28;20449;-73
2022/09/05 07:32:17;;;;;;;6.57;4.60;;;16.90;1.00;;;;;;5053233;28;20430;-73
2022/09/05 07:34:47;;;;;;;8.70;5.00;;;17.00;99.90;;;;;;5053315;28;20426;-72
2022/09/05 07:37:20;;;;;;;5.00;4.40;;;17.10;99.90;;;;;;5053333;28;20445;-73
2022/09/05 07:39:52;;;;;;;5.40;4.90;;;17.20;99.90;;;;;;5053084;28;20539;-73
2022/09/05 07:42:25;;;;;;;5.50;5.00;;;17.30;99.90;;;;;;5052783;28;20933;-73
2022/09/05 07:44:56;;;;;;;6.37;5.20;;;17.30;99.90;;;;;;5052862;28;20556;-74
2022/09/05 07:47:28;;;;;;;8.73;5.10;;;17.40;99.90;;;;;;5053031;28;20968;-73
2022/09/05 07:49:55;;;;;;;9.03;6.03;;;17.50;99.90;;;;;;5052878;28;20797;-73
2022/09/05 07:52:26;;;;;;;9.70;4.70;;;17.40;99.90;;;;;;5053002;28;20453;-73
2022/09/05 07:54:57;;;;;;;15.87;8.23;;;17.50;99.90;;;;;;5052998;28;20430;-73
2022/09/05 07:57:27;;;;;;;5.80;4.93;;;17.50;99.90;;;;;;5052957;28;20440;-71
2022/09/05 07:59:57;;;;;;;32.30;7.47;;;17.50;99.90;;;;;;5053017;28;20524;-72
2022/09/05 08:02:24;;;;;;;5.17;4.77;;;17.50;99.90;;;;;;5052863;28;20441;-72
2022/09/05 08:04:51;;;;;;;6.30;5.67;;;17.50;99.90;;;;;;5052577;28;20497;-71
2022/09/05 08:07:21;;;;;;;12.10;8.50;;;17.60;99.90;;;;;;5052681;28;20450;-71
2022/09/05 08:09:52;;;;;;;6.30;5.37;;;17.70;99.90;;;;;;5053691;28;20485;-73
2022/09/05 08:12:25;;;;;;;8.23;6.30;;;17.80;99.90;;;;;;5052938;28;20426;-72
2022/09/05 08:15:02;;;;;;;6.03;5.43;;;17.90;99.90;;;;;;5052923;28;20507;-72
2022/09/05 08:17:29;;;;;;;4.70;4.30;;;18.00;78.90;;;;;;5052795;28;20425;-72
2022/09/05 08:20:18;;;;;;;7.10;5.07;;;18.10;99.90;;;;;;5052864;28;20468;-72
2022/09/05 08:22:56;;;;;;;7.90;5.60;;;18.30;99.90;;;;;;5052636;28;20465;-72
2022/09/05 08:25:31;;;;;;;11.27;8.20;;;18.30;59.40;;;;;;5052505;28;20465;-72
2022/09/05 08:28:06;;;;;;;7.03;6.33;;;18.30;8.70;;;;;;5052759;28;20429;-72
2022/09/05 08:30:40;;;;;;;5.57;5.00;;;18.40;99.90;;;;;;5055779;28;20466;-71
2022/09/05 08:33:13;;;;;;;6.13;5.33;;;18.50;99.90;;;;;;5056374;28;20437;-72
2022/09/05 08:35:44;;;;;;;6.37;5.70;;;18.70;99.90;;;;;;5056320;28;20428;-72
2022/09/05 08:38:13;;;;;;;8.83;5.97;;;18.70;1.00;;;;;;5056510;28;20798;-72
2022/09/05 08:40:51;;;;;;;7.17;6.43;;;18.80;99.90;;;;;;5056221;28;20939;-71
2022/09/05 08:43:30;;;;;;;10.53;6.00;;;18.80;27.90;;;;;;5056928;28;20437;-71
2022/09/05 08:46:00;;;;;;;6.03;5.60;;;18.80;1.00;;;;;;5056651;28;20465;-72
2022/09/05 08:48:41;;;;;;;6.07;5.47;;;18.90;1.00;;;;;;5057919;28;20438;-71
2022/09/05 08:51:19;;;;;;;6.37;5.77;;;18.90;1.00;;;;;;5056847;28;20422;-72
2022/09/05 08:54:07;;;;;;;7.50;5.70;;;19.00;1.00;;;;;;5056456;28;20437;-72
2022/09/05 08:56:42;;;;;;;7.37;6.57;;;19.20;1.00;;;;;;5056167;28;20425;-72
2022/09/05 08:59:33;;;;;;;6.50;5.73;;;19.30;1.00;;;;;;5055752;28;20469;-72
2022/09/05 09:02:41;;;;;;;8.30;6.53;;;19.30;1.00;;;;;;5056190;28;20452;-72
2022/09/05 09:05:15;;;;;;;8.07;6.70;;;19.30;1.00;;;;;;5055925;28;20469;-72
2022/09/05 09:07:48;;;;;;;6.73;5.73;;;19.20;1.00;;;;;;5055413;28;20438;-72
2022/09/05 09:10:29;;;;;;;8.67;7.17;;;19.20;1.00;;;;;;5055614;28;20861;-71
2022/09/05 09:13:21;;;;;;;9.20;6.70;;;19.30;1.00;;;;;;5055942;28;20437;-72
2022/09/05 09:15:57;;;;;;;7.47;5.40;;;19.30;1.00;;;;;;5055584;28;20518;-71
2022/09/05 09:18:33;;;;;;;6.83;5.77;;;19.40;1.00;;;;;;5055546;28;20441;-73
2022/09/05 09:21:04;;;;;;;6.10;5.63;;;19.60;99.70;;;;;;5055567;28;20436;-70
2022/09/05 09:23:43;;;;;;;6.20;5.60;;;19.70;1.00;;;;;;5055264;28;20445;-72
2022/09/05 09:26:15;;;;;;;6.73;5.93;;;19.80;1.00;;;;;;5054922;28;20470;-72
2022/09/05 09:28:50;;;;;;;8.13;6.07;;;20.10;1.00;;;;;;5055631;28;20536;-73
2022/09/05 09:31:31;;;;;;;6.30;5.80;;;20.00;1.00;;;;;;5055640;28;20411;-72
2022/09/05 09:34:13;;;;;;;9.93;5.70;;;20.00;1.00;;;;;;5055907;28;20464;-72
2022/09/05 09:37:00;;;;;;;6.20;5.70;;;20.00;1.00;;;;;;5056492;28;20426;-71
2022/09/05 09:39:38;;;;;;;6.20;5.70;;;20.10;1.00;;;;;;5055544;28;20473;-72
2022/09/05 09:42:16;;;;;;;6.63;5.93;;;20.30;53.30;;;;;;5054557;28;20433;-72
2022/09/05 09:45:15;;;;;;;6.00;5.47;;;20.30;1.00;;;;;;5055329;28;20482;-71
2022/09/05 09:48:05;;;;;;;6.30;5.30;;;20.40;1.00;;;;;;5055439;28;20444;-73
2022/09/05 09:50:52;;;;;;;7.53;5.93;;;20.50;1.00;;;;;;5056411;28;20466;-72
2022/09/05 09:53:42;;;;;;;7.27;6.57;;;20.50;1.00;;;;;;5055346;28;20426;-72
2022/09/05 09:56:56;;;;;;;5.97;5.53;;;20.60;1.00;;;;;;5054705;28;20928;-71
2022/09/05 09:59:38;;;;;;;8.53;7.60;;;20.70;1.00;;;;;;5018920;28;20576;-73
2022/09/05 10:02:33;;;;;;;6.10;5.60;;;20.70;1.00;;;;;;5054798;28;20438;-72
2022/09/05 10:05:30;;;;;;;7.13;6.43;;;20.80;1.00;;;;;;5054998;28;20491;-73
2022/09/05 10:08:15;;;;;;;7.93;5.90;;;20.90;1.00;;;;;;5055055;28;20819;-73
2022/09/05 10:11:11;;;;;;;6.03;5.53;;;20.90;1.00;;;;;;5078197;22;20580;-81
2022/09/05 10:14:04;;;;;;;6.47;5.77;;;21.00;1.00;;;;;;5057448;28;20464;-82
2022/09/05 10:16:53;;;;;;;5.47;5.07;;;21.00;1.00;;;;;;5019654;28;21003;-82
2022/09/05 10:19:53;;;;;;;6.37;5.77;;;21.00;1.00;;;;;;5056680;28;20825;-82
2022/09/05 10:22:41;;;;;;;5.23;4.83;;;21.00;1.00;;;;;;5056714;28;20825;-82
2022/09/05 10:25:32;;;;;;;7.30;6.17;;;21.10;1.00;;;;;;5055815;28;20476;-82
2022/09/05 10:28:20;;;;;;;6.60;4.83;;;21.20;1.00;;;;;;5056551;28;20422;-81
2022/09/05 10:30:54;;;;;;;6.47;4.87;;;21.30;1.00;;;;;;5056529;28;20473;-81
2022/09/05 10:33:34;;;;;;;6.27;5.00;;;21.30;1.00;;;;;;5056308;28;20433;-81
2022/09/05 10:36:21;;;;;;;5.97;5.37;;;21.50;1.00;;;;;;5056666;28;20437;-82
2022/09/05 10:38:53;;;;;;;5.87;5.37;;;21.60;1.00;;;;;;5056700;28;20487;-81
2022/09/05 10:41:31;;;;;;;5.67;5.17;;;21.60;1.00;;;;;;5057143;28;20481;-81
2022/09/05 10:44:01;;;;;;;5.07;4.67;;;21.70;1.00;;;;;;5057177;28;20889;-81
2022/09/05 10:46:35;;;;;;;6.30;5.70;;;21.80;1.00;;;;;;5057368;28;20487;-81
2022/09/05 10:49:07;;;;;;;5.40;4.90;;;21.90;1.00;;;;;;5057430;28;20433;-82
2022/09/05 10:51:44;;;;;;;6.77;4.90;;;21.90;1.00;;;;;;5071989;28;20517;-82
2022/09/05 10:54:26;;;;;;;4.70;4.40;;;21.90;1.00;;;;;;5073559;28;20437;-82
2022/09/05 10:57:05;;;;;;;5.47;4.97;;;21.90;1.00;;;;;;5062259;28;20429;-81
2022/09/05 10:59:54;;;;;;;6.50;5.90;;;21.80;1.00;;;;;;5062589;28;20827;-83
2022/09/05 11:02:24;;;;;;;5.30;4.90;;;21.90;1.00;;;;;;5069542;28;20423;-81
2022/09/05 11:05:01;;;;;;;6.90;5.77;;;21.90;1.00;;;;;;5076580;28;20437;-79
2022/09/05 11:07:38;;;;;;;5.73;5.00;;;22.00;1.00;;;;;;5072825;28;20461;-82
2022/09/05 11:10:11;;;;;;;8.40;5.60;;;22.00;1.00;;;;;;5069898;28;20473;-82
2022/09/05 11:12:52;;;;;;;7.90;4.63;;;22.00;1.00;;;;;;5070393;28;20436;-81
2022/09/05 11:15:29;;;;;;;6.50;5.00;;;22.10;1.00;;;;;;5070443;28;20426;-80
2022/09/05 11:18:02;;;;;;;5.37;4.80;;;22.20;1.00;;;;;;5070077;28;20493;-81
2022/09/05 11:20:46;;;;;;;18.83;6.57;;;22.20;1.00;;;;;;5071479;28;20492;-83
2022/09/05 11:23:20;;;;;;;9.50;4.80;;;22.30;1.00;;;;;;5069575;28;20434;-82
2022/09/05 11:25:52;;;;;;;19.20;6.00;;;22.20;1.00;;;;;;5071141;28;20470;-80
2022/09/05 11:28:24;;;;;;;9.60;6.70;;;22.30;1.00;;;;;;5069608;28;20437;-82
2022/09/05 11:30:55;;;;;;;6.30;5.50;;;22.30;1.00;;;;;;5066876;28;20469;-80
2022/09/05 11:33:50;;;;;;;7.13;5.47;;;22.40;1.00;;;;;;5068675;28;20434;-81
2022/09/05 11:36:20;;;;;;;132.77;29.03;;;22.40;1.00;;;;;;5068600;28;20426;-82
2022/09/05 11:39:01;;;;;;;59.00;15.40;;;22.30;1.00;;;;;;5066828;28;20436;-83
2022/09/05 11:41:49;;;;;;;318.60;56.57;;;22.30;1.00;;;;;;5068955;28;20472;-83
2022/09/05 11:44:28;;;;;;;179.03;33.57;;;22.30;1.00;;;;;;5068777;28;20430;-81
2022/09/05 11:47:24;;;;;;;54.47;13.53;;;22.30;1.00;;;;;;5070012;28;20493;-82
2022/09/05 11:50:19;;;;;;;13.10;7.03;;;22.30;1.00;;;;;;5065105;28;21045;-82
2022/09/05 11:53:15;;;;;;;8.77;5.50;;;22.40;1.00;;;;;;5056108;28;20454;-82
2022/09/05 11:56:07;;;;;;;5.50;5.00;;;22.40;1.00;;;;;;5057065;28;20540;-81
2022/09/05 11:59:08;;;;;;;6.90;5.83;;;22.40;1.00;;;;;;5065032;28;20430;-81
2022/09/05 12:01:43;;;;;;;5.93;5.30;;;22.50;1.00;;;;;;5066865;28;20892;-82
2022/09/05 12:04:41;;;;;;;7.13;6.50;;;22.60;1.00;;;;;;5070499;28;20406;-82
2022/09/05 12:07:29;;;;;;;5.80;5.40;;;22.60;1.00;;;;;;5072454;28;20477;-81
2022/09/05 12:10:13;;;;;;;7.97;6.13;;;22.70;1.00;;;;;;5072977;28;20493;-82
2022/09/05 12:12:53;;;;;;;7.43;5.67;;;22.80;1.00;;;;;;5073206;28;20453;-84
2022/09/05 12:15:25;;;;;;;6.30;5.80;;;22.70;1.00;;;;;;5072394;28;20533;-83
2022/09/05 12:18:03;;;;;;;6.90;5.40;;;22.70;1.00;;;;;;5073143;28;20425;-80
2022/09/05 12:20:40;;;;;;;6.10;5.70;;;22.80;1.00;;;;;;5072397;28;20469;-81
2022/09/05 12:23:20;;;;;;;7.30;6.63;;;22.70;1.00;;;;;;5071601;28;20440;-82
2022/09/05 12:25:57;;;;;;;7.10;6.47;;;22.70;1.00;;;;;;5072598;28;20433;-81
2022/09/05 12:28:36;;;;;;;7.20;6.17;;;22.60;1.00;;;;;;5072986;28;20430;-82
2022/09/05 12:31:19;;;;;;;7.00;6.30;;;22.60;1.00;;;;;;5072873;28;20468;-79
2022/09/05 12:33:50;;;;;;;7.63;6.87;;;22.60;1.00;;;;;;5072401;28;20425;-82
2022/09/05 12:36:27;;;;;;;8.50;7.80;;;22.70;1.00;;;;;;5073659;28;20422;-82
2022/09/05 12:39:01;;;;;;;7.50;6.90;;;22.70;1.00;;;;;;5078136;28;20438;-81
2022/09/05 12:41:41;;;;;;;8.53;7.63;;;22.70;1.00;;;;;;5079381;28;20461;-80
2022/09/05 12:44:40;;;;;;;14.93;11.00;;;22.70;1.00;;;;;;5073851;28;20492;-83
2022/09/05 12:47:09;;;;;;;8.87;8.13;;;22.70;1.00;;;;;;5071357;28;20493;-83
2022/09/05 12:49:40;;;;;;;9.17;8.30;;;22.80;1.00;;;;;;5072173;28;20493;-82
2022/09/05 12:52:13;;;;;;;10.20;8.47;;;22.80;1.00;;;;;;5072012;28;20430;-82
2022/09/05 12:54:47;;;;;;;8.83;7.13;;;22.90;1.00;;;;;;5070589;28;20410;-79
2022/09/05 12:57:26;;;;;;;8.60;7.80;;;22.90;1.00;;;;;;5070210;28;20414;-81
2022/09/05 12:59:57;;;;;;;8.03;7.20;;;22.90;1.00;;;;;;5070904;28;20957;-81
2022/09/05 13:02:28;;;;;;;7.50;6.80;;;22.90;1.00;;;;;;5071822;28;20442;-81
2022/09/05 13:05:00;;;;;;;8.23;7.53;;;23.00;1.00;;;;;;5074598;28;20429;-81
2022/09/05 13:07:37;;;;;;;12.63;7.00;;;23.00;1.00;;;;;;5079426;28;20529;-80
2022/09/05 13:10:18;;;;;;;8.40;7.53;;;23.10;1.00;;;;;;5076064;28;20472;-81
2022/09/05 13:12:49;;;;;;;8.27;7.53;;;23.10;1.00;;;;;;5072428;28;20430;-81
2022/09/05 13:15:25;;;;;;;7.90;7.10;;;23.40;1.00;;;;;;5071429;28;20426;-83
2022/09/05 13:17:59;;;;;;;9.53;8.70;;;23.20;1.00;;;;;;5071530;28;20508;-81
2022/09/05 13:20:32;;;;;;;8.90;8.00;;;23.30;1.00;;;;;;5070279;28;20461;-82
2022/09/05 13:23:05;;;;;;;6.80;6.20;;;23.30;1.00;;;;;;5072167;28;20470;-83
2022/09/05 13:25:40;;;;;;;8.90;7.30;;;23.40;1.00;;;;;;5068789;28;20430;-82
2022/09/05 13:28:12;;;;;;;11.00;7.07;;;23.40;1.00;;;;;;5067645;28;20465;-81
2022/09/05 13:30:55;;;;;;;7.07;6.47;;;23.40;1.00;;;;;;5073054;28;20456;-80
2022/09/05 13:33:26;;;;;;;12.13;8.47;;;23.40;1.00;;;;;;5075698;28;20460;-81
2022/09/05 13:36:04;;;;;;;8.83;6.90;;;23.40;1.00;;;;;;5069620;28;20926;-82
2022/09/05 13:38:47;;;;;;;8.13;6.70;;;23.20;1.00;;;;;;5068841;28;20430;-79
2022/09/05 13:41:26;;;;;;;7.60;7.00;;;23.30;1.00;;;;;;5066846;28;20493;-81
2022/09/05 13:43:55;;;;;;;8.10;7.37;;;23.20;1.00;;;;;;5068153;28;20429;-81
2022/09/05 13:46:30;;;;;;;8.00;7.20;;;23.20;1.00;;;;;;5069459;28;20521;-82
2022/09/05 13:49:02;;;;;;;7.67;6.93;;;23.20;1.00;;;;;;5069198;28;20445;-82
2022/09/05 13:51:36;;;;;;;7.37;6.60;;;23.20;1.00;;;;;;5068398;28;20472;-81
2022/09/05 13:54:35;;;;;;;7.23;6.40;;;23.10;1.00;;;;;;5069188;28;20433;-81
2022/09/05 13:57:26;;;;;;;8.20;7.53;;;23.10;1.00;;;;;;5069041;28;20879;-82
2022/09/05 14:00:50;;;;;;;7.70;7.00;;;23.10;1.00;;;;;;5067245;28;20465;-81